Time;durP1;ratioP1;P1;durP2;ratioP2;P2;SDS_P1;SDS_P2;PMS_P1;PMS_P2;Temp;Humidity;BMP_temperature;BMP_pressure;BME280_temperature;BME280_humidity;BME280_pressure;Samples;Min_cycle;Max_cycle;Signal;HPM_P1;HPM_P2
2022/10/29 00:00:12;;;;;;;1.00;0.85;;;;;;;23.10;93.26;99872.50;7391045;19;20010;-56
2022/10/29 00:02:38;;;;;;;0.25;0.20;;;;;;;23.03;93.53;99861.84;7394591;19;20051;-57
2022/10/29 00:05:05;;;;;;;2.22;0.35;;;;;;;23.01;93.04;99856.75;7394642;19;20015;-56
2022/10/29 00:07:31;;;;;;;0.20;0.20;;;;;;;22.86;92.99;99853.06;7397958;19;20494;-56
2022/10/29 00:09:57;;;;;;;0.20;0.20;;;;;;;22.94;92.37;99848.16;7392690;19;20107;-57
2022/10/29 00:12:23;;;;;;;1.33;0.25;;;;;;;22.41;94.20;99859.22;7395526;19;20003;-56
2022/10/29 00:14:49;;;;;;;0.10;0.10;;;;;;;22.13;95.25;99868.50;7395558;19;20007;-56
2022/10/29 00:17:15;;;;;;;0.10;0.10;;;;;;;22.54;93.72;99879.72;7397632;19;20014;-56
2022/10/29 00:19:41;;;;;;;0.10;0.10;;;;;;;22.54;93.68;99891.09;7393530;19;20387;-56
2022/10/29 00:22:08;;;;;;;0.85;0.50;;;;;;;22.56;93.47;99882.03;7395811;19;20018;-56
2022/10/29 00:24:34;;;;;;;0.20;0.20;;;;;;;22.01;96.25;99884.25;7395124;19;20022;-56
2022/10/29 00:27:00;;;;;;;2.67;0.45;;;;;;;21.83;97.66;99886.00;7397409;19;20003;-56
2022/10/29 00:29:26;;;;;;;1.02;0.30;;;;;;;22.32;95.58;99880.38;7390413;19;20021;-56
2022/10/29 00:31:52;;;;;;;0.98;0.63;;;;;;;22.91;93.31;99889.06;7394085;19;20022;-57
2022/10/29 00:34:18;;;;;;;4.10;0.77;;;;;;;22.60;93.88;99890.97;7393857;19;20010;-57
2022/10/29 00:36:44;;;;;;;0.10;0.10;;;;;;;22.87;93.16;99883.00;7396151;19;20007;-57
2022/10/29 00:39:14;;;;;;;1.58;0.85;;;;;;;22.14;95.38;99870.00;7394101;19;20488;-57
2022/10/29 00:41:41;;;;;;;0.32;0.32;;;;;;;22.78;93.52;99875.75;7394557;19;20467;-57
2022/10/29 00:44:13;;;;;;;0.40;0.40;;;;;;;13.32;100.00;99871.81;7393900;19;20007;-57
2022/10/29 00:46:42;;;;;;;0.55;0.55;;;;;;;11.94;100.00;99873.63;7393405;19;20530;-56
2022/10/29 00:49:10;;;;;;;0.43;0.30;;;;;;;11.37;100.00;99875.16;7393245;19;20021;-56
2022/10/29 00:51:37;;;;;;;0.20;0.10;;;;;;;11.03;100.00;99875.81;7394238;19;20034;-56
2022/10/29 00:54:07;;;;;;;0.20;0.10;;;;;;;13.53;100.00;99862.09;7398135;19;20010;-56
2022/10/29 00:56:36;;;;;;;0.10;0.10;;;;;;;19.63;100.00;99836.16;7394771;19;20066;-56
2022/10/29 00:59:05;;;;;;;0.43;0.38;;;;;;;13.62;100.00;99847.91;7393740;19;20014;-56
2022/10/29 01:01:32;;;;;;;0.10;0.10;;;;;;;12.50;100.00;99836.06;7393719;19;20014;-56
2022/10/29 01:03:59;;;;;;;1.45;1.08;;;;;;;16.12;100.00;99827.03;7392092;19;20558;-56
2022/10/29 01:06:25;;;;;;;0.40;0.10;;;;;;;15.96;100.00;99830.63;7392263;19;20010;-56
2022/10/29 01:08:52;;;;;;;2.38;0.43;;;;;;;17.50;100.00;99828.44;7391141;19;20131;-56
2022/10/29 01:11:46;;;;;;;1.30;0.52;;;;;;;16.91;100.00;99845.97;7390795;19;20022;-56
2022/10/29 01:14:15;;;;;;;0.10;0.10;;;;;;;20.36;100.00;99827.16;7393640;19;20010;-56
2022/10/29 01:17:07;;;;;;;0.47;0.47;;;;;;;17.68;100.00;99827.78;7394831;19;20009;-56
2022/10/29 01:19:45;;;;;;;2.45;0.38;;;;;;;21.53;100.00;99831.81;7393840;19;20028;-56
2022/10/29 01:22:52;;;;;;;0.57;0.35;;;;;;;22.15;100.00;99814.03;7393738;19;20014;-56
2022/10/29 01:25:52;;;;;;;0.75;0.50;;;;;;;22.48;100.00;99816.69;7391644;19;20397;-56
2022/10/29 01:28:40;;;;;;;0.10;0.10;;;;;;;22.12;100.00;99810.22;7397159;19;20010;-57
2022/10/29 01:31:26;;;;;;;0.47;0.45;;;;;;;22.20;100.00;99811.03;7393039;19;20017;-57
2022/10/29 01:34:02;;;;;;;0.38;0.28;;;;;;;22.86;100.00;99816.16;7392786;19;20031;-57
2022/10/29 01:36:31;;;;;;;0.30;0.10;;;;;;;22.88;100.00;99810.66;7393096;19;20011;-57
2022/10/29 01:39:08;;;;;;;6.03;0.90;;;;;;;23.27;99.92;99798.84;7392099;19;20480;-56
2022/10/29 01:41:49;;;;;;;0.25;0.25;;;;;;;22.73;100.00;99796.41;7392297;19;20332;-56
2022/10/29 01:44:22;;;;;;;;;;;;;;;23.02;100.00;99804.25;7392238;19;20011;-57
2022/10/29 01:46:54;;;;;;;0.93;0.50;;;;;;;23.23;98.93;99801.31;7392766;19;19919;-57
2022/10/29 01:49:27;;;;;;;0.73;0.30;;;;;;;23.72;97.13;99804.63;7390571;19;20038;-57
2022/10/29 01:51:55;;;;;;;0.65;0.10;;;;;;;24.68;92.91;99806.41;7390816;19;20010;-57
2022/10/29 01:54:22;;;;;;;0.10;0.10;;;;;;;24.84;91.44;99816.41;7391018;19;20609;-57
2022/10/29 01:56:58;;;;;;;4.00;0.32;;;;;;;18.37;100.00;99825.28;7393662;19;20074;-56
2022/10/29 01:59:29;;;;;;;1.38;0.60;;;;;;;17.15;100.00;99819.97;7391014;19;20018;-56
2022/10/29 02:02:17;;;;;;;1.00;0.93;;;;;;;16.75;100.00;99806.66;7391311;19;20403;-57
2022/10/29 02:05:05;;;;;;;1.75;0.20;;;;;;;16.40;100.00;99801.66;7390258;19;20006;-57
2022/10/29 02:07:47;;;;;;;1.77;0.40;;;;;;;16.02;100.00;99799.75;7394119;19;20078;-57
2022/10/29 02:10:19;;;;;;;6.65;0.52;;;;;;;15.62;100.00;99787.03;7389658;19;20032;-57
2022/10/29 02:12:49;;;;;;;1.77;0.28;;;;;;;15.73;100.00;99796.22;7391280;19;20018;-57
2022/10/29 02:15:43;;;;;;;4.47;0.80;;;;;;;15.55;100.00;99793.94;7391367;19;20034;-57
2022/10/29 02:18:10;;;;;;;4.95;2.03;;;;;;;15.69;100.00;99794.94;7394125;19;20021;-57
2022/10/29 02:20:41;;;;;;;6.75;1.20;;;;;;;15.79;100.00;99796.19;7390378;19;20017;-56
2022/10/29 02:23:07;;;;;;;0.85;0.52;;;;;;;15.63;100.00;99780.16;7390828;19;20011;-56
2022/10/29 02:25:33;;;;;;;10.40;1.02;;;;;;;15.82;100.00;99787.53;7391117;19;20023;-57
2022/10/29 02:28:00;;;;;;;11.07;0.55;;;;;;;15.60;100.00;99792.41;7395159;19;20014;-56
2022/10/29 02:30:26;;;;;;;1.85;0.85;;;;;;;15.83;100.00;99772.19;7389392;19;20011;-56
2022/10/29 02:32:52;;;;;;;0.63;0.60;;;;;;;16.04;100.00;99781.09;7390907;19;20011;-56
2022/10/29 02:35:18;;;;;;;0.43;0.30;;;;;;;15.85;100.00;99771.69;7390358;19;20007;-56
2022/10/29 02:37:44;;;;;;;0.45;0.20;;;;;;;15.93;100.00;99755.84;7393446;19;20486;-57
2022/10/29 02:40:11;;;;;;;5.47;1.25;;;;;;;15.98;100.00;99748.69;7389947;19;20019;-57
2022/10/29 02:42:37;;;;;;;0.50;0.25;;;;;;;16.06;100.00;99733.59;7390384;19;20023;-56
2022/10/29 02:45:04;;;;;;;0.88;0.68;;;;;;;15.98;100.00;99727.00;7390336;19;20040;-57
2022/10/29 02:47:30;;;;;;;0.32;0.25;;;;;;;15.77;100.00;99728.56;7392287;19;20010;-56
2022/10/29 02:49:56;;;;;;;0.43;0.35;;;;;;;15.67;100.00;99730.13;7388826;19;20026;-56
2022/10/29 02:52:22;;;;;;;0.35;0.30;;;;;;;15.61;100.00;99723.75;7390204;19;20025;-57
2022/10/29 02:54:48;;;;;;;3.13;0.10;;;;;;;15.73;100.00;99709.19;7389308;19;20062;-57
2022/10/29 02:57:14;;;;;;;0.52;0.40;;;;;;;15.55;100.00;99694.94;7391976;19;20332;-57
2022/10/29 02:59:41;;;;;;;0.75;0.47;;;;;;;15.63;100.00;99707.94;7388659;19;20029;-57
2022/10/29 03:02:07;;;;;;;1.48;0.50;;;;;;;15.63;100.00;99707.16;7389851;19;20022;-57
2022/10/29 03:04:33;;;;;;;1.20;0.73;;;;;;;15.55;100.00;99700.56;7390796;19;20455;-57
2022/10/29 03:07:01;;;;;;;0.38;0.38;;;;;;;15.38;100.00;99692.13;7389687;19;20030;-56
2022/10/29 03:09:27;;;;;;;1.10;0.13;;;;;;;15.25;100.00;99691.88;7388558;19;20386;-57
2022/10/29 03:11:53;;;;;;;0.30;0.25;;;;;;;15.32;100.00;99687.78;7389514;19;20025;-56
2022/10/29 03:14:20;;;;;;;0.85;0.20;;;;;;;15.63;100.00;99665.06;7389220;19;20011;-56
2022/10/29 03:16:46;;;;;;;0.40;0.25;;;;;;;15.90;100.00;99669.78;7389555;19;20794;-56
2022/10/29 03:19:12;;;;;;;1.35;0.30;;;;;;;15.84;100.00;99672.63;7389429;19;20010;-57
2022/10/29 03:21:38;;;;;;;1.77;0.77;;;;;;;15.79;100.00;99655.78;7389669;19;20354;-57
2022/10/29 03:24:04;;;;;;;0.10;0.00;;;;;;;15.66;100.00;99661.19;7393382;19;20422;-56
2022/10/29 03:26:30;;;;;;;0.32;0.25;;;;;;;15.25;100.00;99654.63;7390398;19;20006;-56
2022/10/29 03:28:57;;;;;;;0.30;0.28;;;;;;;15.56;100.00;99645.94;7388209;19;20018;-57
2022/10/29 03:31:23;;;;;;;0.75;0.75;;;;;;;15.76;100.00;99648.41;7389063;19;20014;-56
2022/10/29 03:33:49;;;;;;;3.05;0.52;;;;;;;15.37;100.00;99644.94;7389342;19;20015;-56
2022/10/29 03:36:15;;;;;;;1.52;0.20;;;;;;;15.65;100.00;99654.06;7394625;19;20042;-56
2022/10/29 03:38:41;;;;;;;0.40;0.38;;;;;;;15.59;100.00;99650.53;7396123;19;20042;-56
2022/10/29 03:41:09;;;;;;;1.67;0.40;;;;;;;15.53;100.00;99641.34;7396416;19;20031;-56
2022/10/29 03:43:38;;;;;;;1.50;0.30;;;;;;;15.80;100.00;99637.69;7396145;19;20044;-56
2022/10/29 03:46:05;;;;;;;0.40;0.10;;;;;;;15.56;100.00;99634.69;7395859;19;20007;-56
2022/10/29 03:48:31;;;;;;;0.20;0.20;;;;;;;15.73;100.00;99626.97;7399472;19;20011;-57
2022/10/29 03:51:06;;;;;;;1.02;0.63;;;;;;;15.51;100.00;99638.28;7396469;19;20018;-56
2022/10/29 03:53:35;;;;;;;2.15;0.32;;;;;;;15.53;100.00;99652.56;7397619;19;20011;-57
2022/10/29 03:56:01;;;;;;;3.15;0.90;;;;;;;15.28;100.00;99640.34;7395759;19;20662;-56
2022/10/29 03:58:27;;;;;;;0.22;0.22;;;;;;;15.36;100.00;99637.78;7399079;19;20500;-57
2022/10/29 04:01:01;;;;;;;0.70;0.20;;;;;;;15.45;100.00;99632.69;7395919;19;20023;-57
2022/10/29 04:03:29;;;;;;;2.10;0.52;;;;;;;15.39;100.00;99633.97;7396165;19;20359;-57
2022/10/29 04:05:56;;;;;;;0.43;0.20;;;;;;;15.84;100.00;99643.78;7395491;19;20078;-57
2022/10/29 04:08:22;;;;;;;0.10;0.03;;;;;;;15.64;100.00;99647.69;7398676;19;20010;-57
2022/10/29 04:10:49;;;;;;;0.20;0.10;;;;;;;15.66;100.00;99636.72;7389563;19;20383;-57
2022/10/29 04:13:16;;;;;;;0.28;0.00;;;;;;;15.85;100.00;99617.25;7395462;19;20074;-57
2022/10/29 04:15:42;;;;;;;0.60;0.50;;;;;;;16.12;100.00;99604.31;7395582;19;20098;-57
2022/10/29 04:18:09;;;;;;;7.38;2.15;;;;;;;15.64;100.00;99613.22;7399250;19;20023;-57
2022/10/29 04:20:36;;;;;;;1.25;1.02;;;;;;;15.56;100.00;99601.03;7395066;19;20473;-56
2022/10/29 04:23:02;;;;;;;1.50;0.25;;;;;;;15.49;100.00;99596.72;7397210;19;20011;-56
2022/10/29 04:25:29;;;;;;;1.05;0.60;;;;;;;15.55;100.00;99603.06;7394082;19;20018;-56
2022/10/29 04:27:56;;;;;;;0.10;0.10;;;;;;;15.71;100.00;99609.91;7397645;19;20011;-57
2022/10/29 04:30:23;;;;;;;0.85;0.43;;;;;;;15.93;100.00;99607.00;7392706;19;20792;-57
2022/10/29 04:32:49;;;;;;;0.17;0.10;;;;;;;16.02;100.00;99595.47;7395192;19;20011;-57
2022/10/29 04:35:15;;;;;;;0.50;0.30;;;;;;;16.14;100.00;99591.28;7394263;19;20006;-57
2022/10/29 04:37:41;;;;;;;1.05;0.47;;;;;;;16.37;100.00;99575.78;7395277;19;20030;-57
2022/10/29 04:40:08;;;;;;;0.15;0.15;;;;;;;16.25;100.00;99571.56;7394101;19;20017;-56
2022/10/29 04:42:36;;;;;;;0.20;0.20;;;;;;;16.56;100.00;99582.34;7397658;19;20468;-57
2022/10/29 04:45:03;;;;;;;0.45;0.10;;;;;;;16.28;100.00;99576.13;7397547;19;20014;-57
2022/10/29 04:47:29;;;;;;;0.13;0.10;;;;;;;15.99;100.00;99576.06;7395939;19;20463;-57
2022/10/29 04:49:56;;;;;;;0.43;0.40;;;;;;;16.08;100.00;99576.50;7394715;19;20010;-57
2022/10/29 04:52:22;;;;;;;0.57;0.10;;;;;;;15.92;100.00;99582.97;7394390;19;20015;-56
2022/10/29 04:54:48;;;;;;;0.20;0.10;;;;;;;15.74;100.00;99567.50;7393498;19;20010;-56
2022/10/29 04:57:14;;;;;;;0.20;0.20;;;;;;;15.84;100.00;99565.16;7395686;19;20103;-57
2022/10/29 04:59:40;;;;;;;3.20;0.57;;;;;;;16.20;100.00;99558.28;7393940;19;20014;-57
2022/10/29 05:02:06;;;;;;;0.65;0.50;;;;;;;15.97;100.00;99561.75;7392682;19;20401;-56
2022/10/29 05:04:33;;;;;;;0.40;0.40;;;;;;;16.02;100.00;99581.41;7390580;19;20047;-56
2022/10/29 05:06:59;;;;;;;1.88;0.35;;;;;;;15.99;100.00;99576.81;7394461;19;20014;-56
2022/10/29 05:09:25;;;;;;;0.25;0.20;;;;;;;16.12;100.00;99551.72;7390563;19;20015;-57
2022/10/29 05:11:51;;;;;;;1.67;0.45;;;;;;;15.85;100.00;99555.47;7393192;19;20014;-57
2022/10/29 05:14:17;;;;;;;1.25;0.50;;;;;;;16.55;100.00;99549.09;7390228;19;20052;-57
2022/10/29 05:16:43;;;;;;;1.83;0.10;;;;;;;16.41;100.00;99544.59;7393127;19;20018;-57
2022/10/29 05:19:09;;;;;;;0.20;0.13;;;;;;;16.51;100.00;99534.56;7392595;19;20007;-57
2022/10/29 05:21:35;;;;;;;0.10;0.10;;;;;;;16.64;100.00;99543.94;7392744;19;20014;-57
2022/10/29 05:24:02;;;;;;;0.70;0.38;;;;;;;16.86;100.00;99528.13;7398281;19;20025;-57
2022/10/29 05:26:31;;;;;;;11.85;1.40;;;;;;;16.64;100.00;99532.69;7392608;19;20011;-57
2022/10/29 05:28:57;;;;;;;0.22;0.13;;;;;;;17.05;100.00;99545.81;7392451;19;20070;-57
2022/10/29 05:31:23;;;;;;;17.27;0.55;;;;;;;16.99;100.00;99542.31;7392283;19;20336;-57
2022/10/29 05:33:49;;;;;;;0.45;0.10;;;;;;;16.54;100.00;99544.78;7392717;19;20014;-57
2022/10/29 05:36:15;;;;;;;2.22;0.52;;;;;;;16.24;100.00;99553.16;7392085;19;20022;-57
2022/10/29 05:38:41;;;;;;;2.35;0.30;;;;;;;16.50;100.00;99569.63;7392317;19;20401;-57
2022/10/29 05:41:08;;;;;;;0.10;0.10;;;;;;;16.58;100.00;99571.34;7392104;19;20030;-57
2022/10/29 05:43:34;;;;;;;0.45;0.10;;;;;;;16.77;100.00;99554.53;7392668;19;20006;-58
2022/10/29 05:46:03;;;;;;;0.20;0.10;;;;;;;16.73;100.00;99542.06;7389799;19;20017;-58
2022/10/29 05:48:29;;;;;;;0.55;0.30;;;;;;;16.76;100.00;99533.34;7395892;19;20349;-59
2022/10/29 05:50:56;;;;;;;0.57;0.57;;;;;;;17.05;100.00;99507.19;7388683;19;20357;-60
2022/10/29 05:53:22;;;;;;;3.65;0.50;;;;;;;17.16;100.00;99486.63;7392324;19;20017;-61
2022/10/29 05:55:49;;;;;;;1.35;0.50;;;;;;;16.84;100.00;99485.69;7391792;19;20007;-64
2022/10/29 05:58:15;;;;;;;0.10;0.00;;;;;;;16.87;100.00;99471.34;7394318;19;20015;-66
2022/10/29 06:00:43;;;;;;;0.30;0.20;;;;;;;18.02;100.00;99459.84;7391314;19;20053;-67
2022/10/29 06:03:18;;;;;;;0.20;0.10;;;;;;;16.95;100.00;99485.59;7389839;19;20003;-66
2022/10/29 06:05:48;;;;;;;1.17;0.75;;;;;;;16.96;100.00;99482.22;7390843;19;20351;-66
2022/10/29 06:08:15;;;;;;;0.20;0.20;;;;;;;17.05;100.00;99472.66;7394090;19;20375;-66
2022/10/29 06:10:41;;;;;;;0.60;0.22;;;;;;;18.39;100.00;99478.69;7390283;19;20252;-66
2022/10/29 06:13:12;;;;;;;0.63;0.43;;;;;;;17.77;100.00;99468.94;7391733;19;20344;-66
2022/10/29 06:15:39;;;;;;;0.20;0.15;;;;;;;17.85;100.00;99459.34;7390493;19;20015;-66
2022/10/29 06:18:05;;;;;;;0.38;0.30;;;;;;;17.86;100.00;99455.22;7395075;19;20038;-66
2022/10/29 06:20:31;;;;;;;0.08;0.08;;;;;;;17.32;100.00;99447.03;7391732;19;20014;-66
2022/10/29 06:22:58;;;;;;;0.00;0.00;;;;;;;17.71;100.00;99449.31;7392674;19;20011;-65
2022/10/29 06:25:26;;;;;;;9.20;0.90;;;;;;;18.18;100.00;99447.53;7392003;19;20497;-64
2022/10/29 06:28:10;;;;;;;1.20;0.63;;;;;;;17.94;100.00;99458.16;7393918;19;20025;-64
2022/10/29 06:30:37;;;;;;;0.35;0.30;;;;;;;18.39;100.00;99452.56;7392592;19;20014;-66
2022/10/29 06:33:04;;;;;;;0.70;0.55;;;;;;;21.09;100.00;99439.25;7394344;19;20033;-64
2022/10/29 06:35:30;;;;;;;0.20;0.17;;;;;;;22.81;100.00;99425.94;7395009;19;20025;-64
2022/10/29 06:37:57;;;;;;;1.50;0.60;;;;;;;23.02;100.00;99417.22;7394072;19;20018;-65
2022/10/29 06:40:23;;;;;;;1.08;0.10;;;;;;;21.27;100.00;99409.13;7391563;19;20348;-64
2022/10/29 06:42:57;;;;;;;0.10;0.10;;;;;;;19.39;100.00;99401.34;7394060;19;20033;-64
2022/10/29 06:45:23;;;;;;;5.50;0.45;;;;;;;19.30;100.00;99393.31;7386988;19;20014;-62
2022/10/29 06:47:49;;;;;;;0.10;0.10;;;;;;;18.61;100.00;99392.97;7392940;19;20007;-61
2022/10/29 06:50:16;;;;;;;0.60;0.32;;;;;;;18.59;100.00;99401.22;7388633;19;20029;-66
2022/10/29 06:52:42;;;;;;;0.10;0.10;;;;;;;18.30;100.00;99402.97;7392806;19;20010;-66
2022/10/29 06:55:09;;;;;;;8.38;0.25;;;;;;;18.24;100.00;99393.09;7390529;19;20023;-66
2022/10/29 06:57:35;;;;;;;2.90;0.30;;;;;;;18.43;100.00;99394.53;7392986;19;20029;-65
2022/10/29 07:00:01;;;;;;;0.10;0.10;;;;;;;19.28;100.00;99398.75;7389617;19;20082;-65
2022/10/29 07:02:27;;;;;;;0.00;0.00;;;;;;;18.63;100.00;99402.41;7388775;19;20018;-66
2022/10/29 07:04:53;;;;;;;0.13;0.13;;;;;;;18.39;100.00;99398.97;7388775;19;20093;-66
2022/10/29 07:07:19;;;;;;;2.20;0.75;;;;;;;17.82;100.00;99420.94;7391559;19;20025;-66
2022/10/29 07:09:45;;;;;;;0.13;0.10;;;;;;;18.40;100.00;99417.44;7390030;19;20003;-66
2022/10/29 07:12:11;;;;;;;0.20;0.10;;;;;;;18.61;100.00;99415.53;7398656;19;20027;-67
2022/10/29 07:14:38;;;;;;;0.57;0.52;;;;;;;21.19;100.00;99413.97;7397830;19;20015;-67
2022/10/29 07:17:04;;;;;;;0.03;0.03;;;;;;;19.12;100.00;99418.88;7401291;19;20403;-61
2022/10/29 07:19:30;;;;;;;0.75;0.20;;;;;;;18.19;100.00;99412.41;7398998;19;20006;-60
2022/10/29 07:21:56;;;;;;;0.08;0.00;;;;;;;18.08;100.00;99409.03;7396624;19;20466;-67
2022/10/29 07:24:22;;;;;;;3.85;0.70;;;;;;;17.96;100.00;99397.19;7396177;19;20021;-68
2022/10/29 07:26:48;;;;;;;0.10;0.10;;;;;;;18.38;100.00;99397.47;7398002;19;20010;-68
2022/10/29 07:29:14;;;;;;;0.00;0.00;;;;;;;20.12;100.00;99401.16;7395012;19;20015;-68
2022/10/29 07:31:40;;;;;;;0.10;0.10;;;;;;;22.10;100.00;99403.66;7396620;19;20086;-69
2022/10/29 07:34:06;;;;;;;0.00;0.00;;;;;;;23.00;100.00;99411.34;7395658;19;20332;-70
2022/10/29 07:36:32;;;;;;;0.38;0.38;;;;;;;23.35;100.00;99416.72;7396873;19;20070;-70
2022/10/29 07:38:59;;;;;;;0.10;0.05;;;;;;;23.33;100.00;99407.25;7394607;19;20394;-70
2022/10/29 07:41:25;;;;;;;0.60;0.32;;;;;;;23.36;100.00;99417.50;7394188;19;20043;-69
2022/10/29 07:43:51;;;;;;;0.10;0.10;;;;;;;23.06;100.00;99411.88;7395997;19;20011;-69
2022/10/29 07:46:17;;;;;;;0.03;0.03;;;;;;;23.67;100.00;99412.41;7396367;19;20074;-69
2022/10/29 07:48:44;;;;;;;1.45;0.10;;;;;;;23.89;100.00;99417.19;7395659;19;20015;-70
2022/10/29 07:51:10;;;;;;;0.03;0.03;;;;;;;24.38;100.00;99405.84;7399388;19;20037;-70
2022/10/29 07:53:36;;;;;;;1.73;0.25;;;;;;;24.17;100.00;99394.06;7397083;19;20502;-69
2022/10/29 07:56:02;;;;;;;0.00;0.00;;;;;;;24.38;100.00;99396.56;7396788;19;20066;-69
2022/10/29 07:58:28;;;;;;;0.55;0.10;;;;;;;24.46;100.00;99405.78;7399515;19;20007;-70
2022/10/29 08:00:58;;;;;;;0.40;0.20;;;;;;;24.60;100.00;99381.34;7396078;19;20014;-70
2022/10/29 08:03:24;;;;;;;0.32;0.10;;;;;;;24.57;100.00;99379.66;7395973;19;20014;-70
2022/10/29 08:05:50;;;;;;;0.03;0.00;;;;;;;24.91;100.00;99382.56;7396641;19;20054;-71
2022/10/29 08:08:16;;;;;;;0.10;0.10;;;;;;;24.80;100.00;99371.66;7397301;19;20010;-71
2022/10/29 08:10:44;;;;;;;2.20;0.63;;;;;;;24.54;100.00;99372.28;7393227;19;20022;-71
2022/10/29 08:13:10;;;;;;;0.00;0.00;;;;;;;23.82;100.00;99367.53;7395343;19;20359;-70
2022/10/29 08:15:36;;;;;;;0.10;0.10;;;;;;;24.59;100.00;99357.81;7394062;19;20007;-71
2022/10/29 08:18:09;;;;;;;0.10;0.00;;;;;;;23.27;100.00;99349.88;7396463;19;20027;-70
2022/10/29 08:20:35;;;;;;;0.10;0.00;;;;;;;24.05;100.00;99351.09;7393706;19;20011;-70
2022/10/29 08:23:01;;;;;;;0.00;0.00;;;;;;;23.84;100.00;99358.47;7395924;19;20725;-69
2022/10/29 08:25:28;;;;;;;0.30;0.10;;;;;;;23.84;100.00;99342.16;7395151;19;20025;-69
2022/10/29 08:27:59;;;;;;;0.52;0.10;;;;;;;23.94;100.00;99345.84;7398885;19;20534;-70
2022/10/29 08:30:25;;;;;;;0.20;0.10;;;;;;;24.15;100.00;99354.03;7392287;19;20018;-70
2022/10/29 08:32:51;;;;;;;0.20;0.10;;;;;;;23.81;100.00;99360.38;7393290;19;20070;-70
2022/10/29 08:35:17;;;;;;;0.05;0.00;;;;;;;23.89;100.00;99358.22;7394891;19;20021;-70
2022/10/29 08:37:44;;;;;;;0.75;0.28;;;;;;;23.86;100.00;99364.31;7397352;19;20023;-69
2022/10/29 08:40:26;;;;;;;1.65;0.43;;;;;;;23.67;100.00;99367.66;7393681;19;20099;-69
2022/10/29 08:43:23;;;;;;;0.93;0.25;;;;;;;22.85;100.00;99383.72;7393740;19;20014;-69
2022/10/29 08:45:53;;;;;;;4.68;0.28;;;;;;;23.55;100.00;99382.91;7393783;19;20362;-69
2022/10/29 08:48:24;;;;;;;0.10;0.00;;;;;;;23.97;100.00;99361.75;7395889;19;20021;-69
2022/10/29 08:51:14;;;;;;;1.95;0.40;;;;;;;24.02;100.00;99340.84;7391542;19;20018;-69
2022/10/29 08:53:45;;;;;;;0.47;0.10;;;;;;;23.59;100.00;99349.13;7396555;19;20037;-69
2022/10/29 08:56:18;;;;;;;0.32;0.10;;;;;;;23.69;100.00;99353.59;7393421;19;20351;-69
2022/10/29 08:58:54;;;;;;;0.50;0.10;;;;;;;23.87;100.00;99346.66;7394682;19;20014;-69
2022/10/29 09:01:22;;;;;;;2.88;0.50;;;;;;;24.03;100.00;99336.69;7393368;19;20021;-68
2022/10/29 09:03:49;;;;;;;0.70;0.30;;;;;;;24.31;100.00;99331.91;7393365;19;20015;-68
2022/10/29 09:06:23;;;;;;;1.95;0.43;;;;;;;24.57;100.00;99314.94;7394215;19;20078;-68
2022/10/29 09:09:00;;;;;;;2.75;0.80;;;;;;;24.81;100.00;99314.13;7390560;19;20023;-68
2022/10/29 09:11:47;;;;;;;0.68;0.30;;;;;;;24.84;100.00;99315.78;7396155;19;20010;-68
2022/10/29 09:14:29;;;;;;;0.20;0.20;;;;;;;24.97;100.00;99323.22;7393559;19;20014;-68
2022/10/29 09:17:14;;;;;;;2.15;0.52;;;;;;;25.18;100.00;99334.19;7395204;19;20502;-67
2022/10/29 09:20:14;;;;;;;6.82;0.57;;;;;;;25.31;100.00;99343.13;7393245;19;20031;-67
2022/10/29 09:22:46;;;;;;;2.80;1.10;;;;;;;24.91;100.00;99348.38;7394790;19;20010;-68
2022/10/29 09:25:29;;;;;;;1.23;0.57;;;;;;;24.06;100.00;99335.53;7392787;19;20020;-67
2022/10/29 09:27:55;;;;;;;0.85;0.35;;;;;;;23.86;100.00;99328.09;7396044;19;20010;-67
2022/10/29 09:30:21;;;;;;;0.65;0.38;;;;;;;24.80;100.00;99315.44;7390815;19;20014;-67
2022/10/29 09:32:53;;;;;;;4.90;1.00;;;;;;;24.56;100.00;99332.63;7391131;19;20030;-67
2022/10/29 09:35:21;;;;;;;3.78;1.17;;;;;;;23.99;100.00;99330.66;7393645;19;20011;-67
2022/10/29 09:37:47;;;;;;;5.90;0.88;;;;;;;24.02;100.00;99318.09;7396295;19;20022;-66
2022/10/29 09:40:36;;;;;;;0.70;0.32;;;;;;;24.32;100.00;99327.72;7393669;19;20491;-66
2022/10/29 09:43:11;;;;;;;2.30;1.02;;;;;;;19.91;100.00;99323.31;7392962;19;20086;-66
2022/10/29 09:45:45;;;;;;;1.80;0.47;;;;;;;23.40;100.00;99320.44;7392475;19;20007;-65
2022/10/29 09:48:35;;;;;;;1.25;0.63;;;;;;;22.56;100.00;99306.56;7395321;19;20026;-65
2022/10/29 09:51:14;;;;;;;2.03;0.82;;;;;;;24.00;100.00;99314.31;7388966;19;20019;-65
2022/10/29 09:53:40;;;;;;;1.45;0.45;;;;;;;24.02;100.00;99318.09;7394560;19;20011;-65
2022/10/29 09:56:08;;;;;;;1.85;0.75;;;;;;;24.34;100.00;99303.03;7390433;19;20094;-65
2022/10/29 09:58:38;;;;;;;5.07;0.95;;;;;;;24.01;100.00;99310.91;7391229;19;20084;-66
2022/10/29 10:01:05;;;;;;;0.10;0.10;;;;;;;23.91;100.00;99318.56;7390859;19;20014;-64
2022/10/29 10:03:47;;;;;;;3.50;0.90;;;;;;;23.12;100.00;99315.84;7391097;19;20020;-63
2022/10/29 10:06:15;;;;;;;0.45;0.25;;;;;;;22.88;100.00;99322.19;7391207;19;20392;-64
2022/10/29 10:09:00;;;;;;;0.55;0.35;;;;;;;24.28;100.00;99324.56;7390937;19;20838;-64
2022/10/29 10:11:38;;;;;;;1.23;0.82;;;;;;;24.50;100.00;99315.00;7391169;19;20451;-64
2022/10/29 10:14:18;;;;;;;1.20;0.52;;;;;;;24.94;100.00;99312.25;7391751;19;20343;-63
2022/10/29 10:16:45;;;;;;;1.65;0.20;;;;;;;25.06;100.00;99314.00;7390378;19;20379;-63
2022/10/29 10:19:22;;;;;;;5.10;0.20;;;;;;;25.13;100.00;99313.16;7390732;19;20099;-62
2022/10/29 10:22:20;;;;;;;0.32;0.20;;;;;;;24.83;100.00;99290.75;7389901;19;20347;-63
2022/10/29 10:24:46;;;;;;;1.85;0.55;;;;;;;24.58;100.00;99281.53;7389343;19;20011;-63
2022/10/29 10:27:18;;;;;;;0.73;0.17;;;;;;;24.90;100.00;99284.19;7391711;19;20460;-63
2022/10/29 10:30:10;;;;;;;16.58;2.20;;;;;;;25.17;100.00;99284.97;7388403;19;20019;-65
2022/10/29 10:32:36;;;;;;;2.05;0.88;;;;;;;25.21;100.00;99285.28;7390228;19;20133;-63
2022/10/29 10:35:20;;;;;;;2.53;0.40;;;;;;;25.19;100.00;99279.44;7392383;19;20010;-63
2022/10/29 10:37:46;;;;;;;5.28;0.57;;;;;;;25.33;100.00;99277.72;7394341;19;20403;-63
2022/10/29 10:40:21;;;;;;;2.65;0.75;;;;;;;24.07;100.00;99268.00;7389586;19;20031;-62
2022/10/29 10:42:47;;;;;;;0.85;0.55;;;;;;;25.11;100.00;99261.69;7390041;19;20014;-63
2022/10/29 10:45:16;;;;;;;1.30;0.38;;;;;;;25.03;100.00;99251.75;7388185;19;20014;-63
2022/10/29 10:47:50;;;;;;;0.93;0.57;;;;;;;24.75;100.00;99268.03;7391789;19;20347;-62
2022/10/29 10:50:36;;;;;;;0.80;0.28;;;;;;;25.01;100.00;99280.06;7388036;19;20019;-63
2022/10/29 10:53:22;;;;;;;1.40;0.70;;;;;;;25.15;100.00;99266.94;7392341;19;20015;-62
2022/10/29 10:55:56;;;;;;;1.00;0.47;;;;;;;25.54;100.00;99266.59;7389017;19;20014;-63
2022/10/29 10:58:29;;;;;;;1.10;0.77;;;;;;;25.43;100.00;99272.84;7393610;19;20006;-63
2022/10/29 11:00:58;;;;;;;0.88;0.40;;;;;;;24.64;100.00;99267.78;7388254;19;20015;-63
2022/10/29 11:03:46;;;;;;;1.77;0.45;;;;;;;24.90;100.00;99267.09;7390141;19;20014;-63
2022/10/29 11:06:17;;;;;;;10.68;1.00;;;;;;;23.86;100.00;99276.91;7387239;19;20015;-63
2022/10/29 11:09:04;;;;;;;3.20;0.98;;;;;;;23.72;100.00;99281.38;7388663;19;20469;-63
2022/10/29 11:11:39;;;;;;;1.85;0.20;;;;;;;24.29;100.00;99277.66;7389486;19;20015;-62
2022/10/29 11:14:13;;;;;;;0.73;0.38;;;;;;;24.72;100.00;99262.75;7389980;19;20471;-63
2022/10/29 11:16:49;;;;;;;4.68;0.75;;;;;;;19.14;100.00;99275.13;7390202;19;20010;-62
2022/10/29 11:19:36;;;;;;;5.75;1.20;;;;;;;16.88;100.00;99272.41;7386811;19;20014;-62
2022/10/29 11:22:11;;;;;;;1.52;0.20;;;;;;;23.64;100.00;99249.41;7389422;19;20018;-62
2022/10/29 11:24:56;;;;;;;4.03;1.10;;;;;;;17.66;100.00;99267.09;7389301;19;20029;-62
2022/10/29 11:27:56;;;;;;;1.17;0.68;;;;;;;24.26;100.00;99256.06;7392752;19;20515;-62
2022/10/29 11:30:22;;;;;;;2.65;1.52;;;;;;;24.75;100.00;99275.84;7385524;19;20019;-63
2022/10/29 11:33:15;;;;;;;2.75;1.10;;;;;;;24.69;100.00;99258.22;7387965;19;20019;-63
2022/10/29 11:36:16;;;;;;;4.43;1.02;;;;;;;21.23;100.00;99250.09;7388542;19;20325;-62
2022/10/29 11:38:48;;;;;;;4.95;1.17;;;;;;;24.82;100.00;99244.41;7386575;19;20017;-62
2022/10/29 11:41:24;;;;;;;5.50;0.82;;;;;;;22.75;100.00;99240.84;7387964;19;20014;-62